sensor_id;sensor_type;location;lat;lon;timestamp;temperature;humidity
56374;DHT22;58212;47.034;7.376;2022-10-16T00:01:34;15.10;99.90
56374;DHT22;58212;47.034;7.376;2022-10-16T00:04:02;15.10;99.90
56374;DHT22;58212;47.034;7.376;2022-10-16T00:06:31;15.10;99.90
56374;DHT22;58212;47.034;7.376;2022-10-16T00:08:59;15.00;99.90
56374;DHT22;58212;47.034;7.376;2022-10-16T00:11:28;15.00;99.90
56374;DHT22;58212;47.034;7.376;2022-10-16T00:13:58;15.00;99.90
56374;DHT22;58212;47.034;7.376;2022-10-16T00:16:26;14.90;99.90
56374;DHT22;58212;47.034;7.376;2022-10-16T00:18:54;14.90;99.90
56374;DHT22;58212;47.034;7.376;2022-10-16T00:21:23;14.90;99.90
56374;DHT22;58212;47.034;7.376;2022-10-16T00:23:51;14.90;99.90
56374;DHT22;58212;47.034;7.376;2022-10-16T00:26:19;14.90;99.90
56374;DHT22;58212;47.034;7.376;2022-10-16T00:28:46;14.90;99.90
56374;DHT22;58212;47.034;7.376;2022-10-16T00:31:16;14.90;99.90
56374;DHT22;58212;47.034;7.376;2022-10-16T00:33:43;14.90;99.90
56374;DHT22;58212;47.034;7.376;2022-10-16T00:36:15;14.80;99.90
56374;DHT22;58212;47.034;7.376;2022-10-16T00:38:43;14.80;99.90
56374;DHT22;58212;47.034;7.376;2022-10-16T00:41:12;14.80;99.90
56374;DHT22;58212;47.034;7.376;2022-10-16T00:43:42;14.80;99.90
56374;DHT22;58212;47.034;7.376;2022-10-16T00:46:17;14.80;99.90
56374;DHT22;58212;47.034;7.376;2022-10-16T00:48:48;14.80;99.90
56374;DHT22;58212;47.034;7.376;2022-10-16T00:51:21;14.80;99.90
56374;DHT22;58212;47.034;7.376;2022-10-16T00:53:50;14.80;99.90
56374;DHT22;58212;47.034;7.376;2022-10-16T00:56:17;14.70;99.90
56374;DHT22;58212;47.034;7.376;2022-10-16T00:58:45;14.70;99.90
56374;DHT22;58212;47.034;7.376;2022-10-16T01:01:12;14.70;99.90
56374;DHT22;58212;47.034;7.376;2022-10-16T01:03:40;14.80;99.90
56374;DHT22;58212;47.034;7.376;2022-10-16T01:06:23;14.80;99.90
56374;DHT22;58212;47.034;7.376;2022-10-16T01:09:02;14.70;99.90
56374;DHT22;58212;47.034;7.376;2022-10-16T01:11:33;14.70;99.90
56374;DHT22;58212;47.034;7.376;2022-10-16T01:14:08;14.70;99.90
56374;DHT22;58212;47.034;7.376;2022-10-16T01:16:39;14.70;99.90
56374;DHT22;58212;47.034;7.376;2022-10-16T01:19:14;14.60;99.90
56374;DHT22;58212;47.034;7.376;2022-10-16T01:21:46;14.70;99.90
56374;DHT22;58212;47.034;7.376;2022-10-16T01:24:17;14.70;99.90
56374;DHT22;58212;47.034;7.376;2022-10-16T01:27:09;14.60;99.90
56374;DHT22;58212;47.034;7.376;2022-10-16T01:29:41;14.60;99.90
56374;DHT22;58212;47.034;7.376;2022-10-16T01:32:15;14.60;99.90
56374;DHT22;58212;47.034;7.376;2022-10-16T01:34:48;14.60;99.90
56374;DHT22;58212;47.034;7.376;2022-10-16T01:37:21;14.50;99.90
56374;DHT22;58212;47.034;7.376;2022-10-16T01:39:53;14.50;99.90
56374;DHT22;58212;47.034;7.376;2022-10-16T01:42:27;14.50;99.90
56374;DHT22;58212;47.034;7.376;2022-10-16T01:44:56;14.50;99.90
56374;DHT22;58212;47.034;7.376;2022-10-16T01:47:27;14.50;99.90
56374;DHT22;58212;47.034;7.376;2022-10-16T01:49:58;14.40;99.90
56374;DHT22;58212;47.034;7.376;2022-10-16T01:52:27;14.40;99.90
56374;DHT22;58212;47.034;7.376;2022-10-16T01:54:56;14.40;99.90
56374;DHT22;58212;47.034;7.376;2022-10-16T01:57:27;14.50;99.90
56374;DHT22;58212;47.034;7.376;2022-10-16T01:59:58;14.40;99.90
56374;DHT22;58212;47.034;7.376;2022-10-16T02:02:39;14.40;99.90
56374;DHT22;58212;47.034;7.376;2022-10-16T02:05:12;14.40;99.90
56374;DHT22;58212;47.034;7.376;2022-10-16T02:07:40;14.40;99.90
56374;DHT22;58212;47.034;7.376;2022-10-16T02:10:08;14.30;99.90
56374;DHT22;58212;47.034;7.376;2022-10-16T02:12:39;14.40;99.90
56374;DHT22;58212;47.034;7.376;2022-10-16T02:15:08;14.40;99.90
56374;DHT22;58212;47.034;7.376;2022-10-16T02:17:35;14.40;99.90
56374;DHT22;58212;47.034;7.376;2022-10-16T02:20:05;14.40;99.90
56374;DHT22;58212;47.034;7.376;2022-10-16T02:22:35;14.40;99.90
56374;DHT22;58212;47.034;7.376;2022-10-16T02:25:07;14.40;99.90
56374;DHT22;58212;47.034;7.376;2022-10-16T02:27:40;14.40;99.90
56374;DHT22;58212;47.034;7.376;2022-10-16T02:30:13;14.40;99.90
56374;DHT22;58212;47.034;7.376;2022-10-16T02:32:44;14.50;99.90
56374;DHT22;58212;47.034;7.376;2022-10-16T02:35:12;14.50;99.90
56374;DHT22;58212;47.034;7.376;2022-10-16T02:37:40;14.50;99.90
56374;DHT22;58212;47.034;7.376;2022-10-16T02:40:08;14.50;99.90
56374;DHT22;58212;47.034;7.376;2022-10-16T02:42:39;14.50;99.90
56374;DHT22;58212;47.034;7.376;2022-10-16T02:45:09;14.50;99.90
56374;DHT22;58212;47.034;7.376;2022-10-16T02:47:37;14.50;99.90
56374;DHT22;58212;47.034;7.376;2022-10-16T02:50:04;14.50;99.90
56374;DHT22;58212;47.034;7.376;2022-10-16T02:52:32;14.50;99.90
56374;DHT22;58212;47.034;7.376;2022-10-16T02:54:59;14.50;99.90
56374;DHT22;58212;47.034;7.376;2022-10-16T02:57:26;14.50;99.90
56374;DHT22;58212;47.034;7.376;2022-10-16T02:59:55;14.50;99.90
56374;DHT22;58212;47.034;7.376;2022-10-16T03:02:22;14.50;99.90
56374;DHT22;58212;47.034;7.376;2022-10-16T03:04:49;14.50;99.90
56374;DHT22;58212;47.034;7.376;2022-10-16T03:07:16;14.60;99.90
56374;DHT22;58212;47.034;7.376;2022-10-16T03:09:43;14.50;99.90
56374;DHT22;58212;47.034;7.376;2022-10-16T03:12:10;14.50;99.90
56374;DHT22;58212;47.034;7.376;2022-10-16T03:14:37;14.60;99.90
56374;DHT22;58212;47.034;7.376;2022-10-16T03:17:07;14.60;99.90
56374;DHT22;58212;47.034;7.376;2022-10-16T03:19:34;14.50;99.90
56374;DHT22;58212;47.034;7.376;2022-10-16T03:22:01;14.50;99.90
56374;DHT22;58212;47.034;7.376;2022-10-16T03:24:28;14.60;99.90
56374;DHT22;58212;47.034;7.376;2022-10-16T03:26:55;14.60;99.90
56374;DHT22;58212;47.034;7.376;2022-10-16T03:29:23;14.50;99.90
56374;DHT22;58212;47.034;7.376;2022-10-16T03:31:51;14.50;99.90
56374;DHT22;58212;47.034;7.376;2022-10-16T03:34:20;14.50;99.90
56374;DHT22;58212;47.034;7.376;2022-10-16T03:36:47;14.50;99.90
56374;DHT22;58212;47.034;7.376;2022-10-16T03:39:14;14.50;99.90
56374;DHT22;58212;47.034;7.376;2022-10-16T03:41:41;14.50;99.90
56374;DHT22;58212;47.034;7.376;2022-10-16T03:44:08;14.50;99.90
56374;DHT22;58212;47.034;7.376;2022-10-16T03:46:35;14.50;99.90
56374;DHT22;58212;47.034;7.376;2022-10-16T03:49:02;14.50;99.90
56374;DHT22;58212;47.034;7.376;2022-10-16T03:51:30;14.50;99.90
56374;DHT22;58212;47.034;7.376;2022-10-16T03:53:57;14.60;99.90
56374;DHT22;58212;47.034;7.376;2022-10-16T03:56:25;14.60;99.90
56374;DHT22;58212;47.034;7.376;2022-10-16T03:58:53;14.50;99.90
56374;DHT22;58212;47.034;7.376;2022-10-16T04:01:20;14.60;99.90
56374;DHT22;58212;47.034;7.376;2022-10-16T04:03:47;14.60;99.90
56374;DHT22;58212;47.034;7.376;2022-10-16T04:06:14;14.50;99.90
56374;DHT22;58212;47.034;7.376;2022-10-16T04:08:44;14.60;99.90
56374;DHT22;58212;47.034;7.376;2022-10-16T04:11:11;14.60;99.90
56374;DHT22;58212;47.034;7.376;2022-10-16T04:13:38;14.50;99.90
56374;DHT22;58212;47.034;7.376;2022-10-16T04:16:05;14.50;99.90
56374;DHT22;58212;47.034;7.376;2022-10-16T04:18:32;14.50;99.90
56374;DHT22;58212;47.034;7.376;2022-10-16T04:21:03;14.50;99.90
56374;DHT22;58212;47.034;7.376;2022-10-16T04:23:30;14.50;99.90
56374;DHT22;58212;47.034;7.376;2022-10-16T04:25:58;14.50;99.90
56374;DHT22;58212;47.034;7.376;2022-10-16T04:28:26;14.50;99.90
56374;DHT22;58212;47.034;7.376;2022-10-16T04:30:53;14.50;99.90
56374;DHT22;58212;47.034;7.376;2022-10-16T04:33:20;14.50;99.90
56374;DHT22;58212;47.034;7.376;2022-10-16T04:35:47;14.40;99.90
56374;DHT22;58212;47.034;7.376;2022-10-16T04:38:14;14.50;99.90
56374;DHT22;58212;47.034;7.376;2022-10-16T04:40:42;14.40;99.90
56374;DHT22;58212;47.034;7.376;2022-10-16T04:43:10;14.40;99.90
56374;DHT22;58212;47.034;7.376;2022-10-16T04:45:37;14.40;99.90
56374;DHT22;58212;47.034;7.376;2022-10-16T04:48:04;14.40;99.90
56374;DHT22;58212;47.034;7.376;2022-10-16T04:50:31;14.40;99.90
56374;DHT22;58212;47.034;7.376;2022-10-16T04:53:04;14.40;99.90
56374;DHT22;58212;47.034;7.376;2022-10-16T04:55:31;14.40;99.90
56374;DHT22;58212;47.034;7.376;2022-10-16T04:57:58;14.40;99.90
56374;DHT22;58212;47.034;7.376;2022-10-16T05:00:27;14.40;99.90
56374;DHT22;58212;47.034;7.376;2022-10-16T05:02:56;14.30;99.90
56374;DHT22;58212;47.034;7.376;2022-10-16T05:05:25;14.30;99.90
56374;DHT22;58212;47.034;7.376;2022-10-16T05:07:52;14.30;99.90
56374;DHT22;58212;47.034;7.376;2022-10-16T05:10:19;14.20;99.90
56374;DHT22;58212;47.034;7.376;2022-10-16T05:12:46;14.20;99.90
56374;DHT22;58212;47.034;7.376;2022-10-16T05:15:13;14.30;99.90
56374;DHT22;58212;47.034;7.376;2022-10-16T05:17:42;14.30;99.90
56374;DHT22;58212;47.034;7.376;2022-10-16T05:20:09;14.30;99.90
56374;DHT22;58212;47.034;7.376;2022-10-16T05:22:36;14.30;99.90
56374;DHT22;58212;47.034;7.376;2022-10-16T05:25:04;14.30;99.90
56374;DHT22;58212;47.034;7.376;2022-10-16T05:27:31;14.30;99.90
56374;DHT22;58212;47.034;7.376;2022-10-16T05:29:58;14.20;99.90
56374;DHT22;58212;47.034;7.376;2022-10-16T05:32:25;14.20;99.90
56374;DHT22;58212;47.034;7.376;2022-10-16T05:34:54;14.20;99.90
56374;DHT22;58212;47.034;7.376;2022-10-16T05:37:21;14.20;99.90
56374;DHT22;58212;47.034;7.376;2022-10-16T05:39:48;14.20;99.90
56374;DHT22;58212;47.034;7.376;2022-10-16T05:42:15;14.20;99.90
56374;DHT22;58212;47.034;7.376;2022-10-16T05:44:42;14.20;99.90
56374;DHT22;58212;47.034;7.376;2022-10-16T05:47:09;14.20;99.90
56374;DHT22;58212;47.034;7.376;2022-10-16T05:49:36;14.10;99.90
56374;DHT22;58212;47.034;7.376;2022-10-16T05:52:05;14.20;99.90
56374;DHT22;58212;47.034;7.376;2022-10-16T05:54:32;14.20;99.90
56374;DHT22;58212;47.034;7.376;2022-10-16T05:56:59;14.20;99.90
56374;DHT22;58212;47.034;7.376;2022-10-16T05:59:27;14.20;99.90
56374;DHT22;58212;47.034;7.376;2022-10-16T06:01:55;14.20;99.90
56374;DHT22;58212;47.034;7.376;2022-10-16T06:04:22;14.20;99.90
56374;DHT22;58212;47.034;7.376;2022-10-16T06:06:49;14.10;99.90
56374;DHT22;58212;47.034;7.376;2022-10-16T06:09:18;14.00;99.90
56374;DHT22;58212;47.034;7.376;2022-10-16T06:11:45;14.00;99.90
56374;DHT22;58212;47.034;7.376;2022-10-16T06:14:12;14.00;99.90
56374;DHT22;58212;47.034;7.376;2022-10-16T06:16:39;14.00;99.90
56374;DHT22;58212;47.034;7.376;2022-10-16T06:19:06;14.00;99.90
56374;DHT22;58212;47.034;7.376;2022-10-16T06:21:35;14.10;99.90
56374;DHT22;58212;47.034;7.376;2022-10-16T06:24:02;14.10;99.90
56374;DHT22;58212;47.034;7.376;2022-10-16T06:26:31;14.10;99.90
56374;DHT22;58212;47.034;7.376;2022-10-16T06:28:59;14.10;99.90
56374;DHT22;58212;47.034;7.376;2022-10-16T06:31:27;14.10;99.90
56374;DHT22;58212;47.034;7.376;2022-10-16T06:33:57;14.20;99.90
56374;DHT22;58212;47.034;7.376;2022-10-16T06:36:25;14.30;99.90
56374;DHT22;58212;47.034;7.376;2022-10-16T06:38:52;14.30;99.90
56374;DHT22;58212;47.034;7.376;2022-10-16T06:41:21;14.30;99.90
56374;DHT22;58212;47.034;7.376;2022-10-16T06:43:50;14.30;99.90
56374;DHT22;58212;47.034;7.376;2022-10-16T06:46:22;14.40;99.90
56374;DHT22;58212;47.034;7.376;2022-10-16T06:48:49;14.40;99.90
56374;DHT22;58212;47.034;7.376;2022-10-16T06:51:18;14.50;99.90
56374;DHT22;58212;47.034;7.376;2022-10-16T06:53:49;14.50;99.90
56374;DHT22;58212;47.034;7.376;2022-10-16T06:56:18;14.50;99.90
56374;DHT22;58212;47.034;7.376;2022-10-16T06:58:46;14.60;99.90
56374;DHT22;58212;47.034;7.376;2022-10-16T07:01:16;14.60;99.90
56374;DHT22;58212;47.034;7.376;2022-10-16T07:03:45;14.60;99.90
56374;DHT22;58212;47.034;7.376;2022-10-16T07:06:15;14.70;99.90
56374;DHT22;58212;47.034;7.376;2022-10-16T07:08:44;14.70;99.90
56374;DHT22;58212;47.034;7.376;2022-10-16T07:11:14;14.80;99.90
56374;DHT22;58212;47.034;7.376;2022-10-16T07:13:42;14.80;99.90
56374;DHT22;58212;47.034;7.376;2022-10-16T07:16:11;14.90;99.90
56374;DHT22;58212;47.034;7.376;2022-10-16T07:18:41;14.90;99.90
56374;DHT22;58212;47.034;7.376;2022-10-16T07:21:12;14.90;99.90
56374;DHT22;58212;47.034;7.376;2022-10-16T07:23:40;14.90;99.90
56374;DHT22;58212;47.034;7.376;2022-10-16T07:26:07;14.90;99.90
56374;DHT22;58212;47.034;7.376;2022-10-16T07:28:34;14.90;99.90
56374;DHT22;58212;47.034;7.376;2022-10-16T07:31:01;14.90;99.90
56374;DHT22;58212;47.034;7.376;2022-10-16T07:33:30;14.90;99.90
56374;DHT22;58212;47.034;7.376;2022-10-16T07:35:59;14.90;99.90
56374;DHT22;58212;47.034;7.376;2022-10-16T07:38:26;14.90;99.90
56374;DHT22;58212;47.034;7.376;2022-10-16T07:40:57;14.90;99.90
56374;DHT22;58212;47.034;7.376;2022-10-16T07:43:25;14.90;99.90
56374;DHT22;58212;47.034;7.376;2022-10-16T07:45:52;14.90;99.90
56374;DHT22;58212;47.034;7.376;2022-10-16T07:48:21;14.90;99.90
56374;DHT22;58212;47.034;7.376;2022-10-16T07:50:50;14.90;99.90
56374;DHT22;58212;47.034;7.376;2022-10-16T07:53:19;14.80;99.90
56374;DHT22;58212;47.034;7.376;2022-10-16T07:55:47;14.80;99.90
56374;DHT22;58212;47.034;7.376;2022-10-16T07:58:14;14.70;99.90
56374;DHT22;58212;47.034;7.376;2022-10-16T08:00:42;14.70;99.90
56374;DHT22;58212;47.034;7.376;2022-10-16T08:03:09;14.70;99.90
56374;DHT22;58212;47.034;7.376;2022-10-16T08:05:36;14.60;99.90
56374;DHT22;58212;47.034;7.376;2022-10-16T08:08:05;14.60;99.90
56374;DHT22;58212;47.034;7.376;2022-10-16T08:10:34;14.60;99.90
56374;DHT22;58212;47.034;7.376;2022-10-16T08:13:01;14.80;99.90
56374;DHT22;58212;47.034;7.376;2022-10-16T08:15:28;15.00;99.90
56374;DHT22;58212;47.034;7.376;2022-10-16T08:17:57;15.10;99.90
56374;DHT22;58212;47.034;7.376;2022-10-16T08:20:25;15.30;99.90
56374;DHT22;58212;47.034;7.376;2022-10-16T08:22:53;15.50;99.90
56374;DHT22;58212;47.034;7.376;2022-10-16T08:25:21;15.60;99.90
56374;DHT22;58212;47.034;7.376;2022-10-16T08:27:50;15.70;99.90
56374;DHT22;58212;47.034;7.376;2022-10-16T08:30:19;15.80;99.90
56374;DHT22;58212;47.034;7.376;2022-10-16T08:32:49;15.80;99.90
56374;DHT22;58212;47.034;7.376;2022-10-16T08:35:19;15.90;99.90
56374;DHT22;58212;47.034;7.376;2022-10-16T08:37:47;16.00;99.90
56374;DHT22;58212;47.034;7.376;2022-10-16T08:40:18;16.10;99.90
56374;DHT22;58212;47.034;7.376;2022-10-16T08:43:20;16.20;99.90
56374;DHT22;58212;47.034;7.376;2022-10-16T08:48:41;16.50;99.90
56374;DHT22;58212;47.034;7.376;2022-10-16T08:51:13;16.70;99.90
56374;DHT22;58212;47.034;7.376;2022-10-16T08:53:46;16.90;99.90
56374;DHT22;58212;47.034;7.376;2022-10-16T08:56:17;17.10;99.90
56374;DHT22;58212;47.034;7.376;2022-10-16T08:58:49;17.20;99.90
56374;DHT22;58212;47.034;7.376;2022-10-16T09:01:19;17.20;99.90
56374;DHT22;58212;47.034;7.376;2022-10-16T09:04:17;17.30;99.90
56374;DHT22;58212;47.034;7.376;2022-10-16T09:06:55;17.40;99.90
56374;DHT22;58212;47.034;7.376;2022-10-16T09:09:40;17.50;99.90
56374;DHT22;58212;47.034;7.376;2022-10-16T09:12:12;17.60;99.90
56374;DHT22;58212;47.034;7.376;2022-10-16T09:14:50;17.80;99.90
56374;DHT22;58212;47.034;7.376;2022-10-16T09:17:27;18.00;99.90
56374;DHT22;58212;47.034;7.376;2022-10-16T09:20:20;18.00;99.90
56374;DHT22;58212;47.034;7.376;2022-10-16T09:22:53;18.20;99.90
56374;DHT22;58212;47.034;7.376;2022-10-16T09:25:22;18.20;99.90
56374;DHT22;58212;47.034;7.376;2022-10-16T09:27:52;18.30;99.90
56374;DHT22;58212;47.034;7.376;2022-10-16T09:30:22;18.40;99.90
56374;DHT22;58212;47.034;7.376;2022-10-16T09:32:51;18.50;99.90
56374;DHT22;58212;47.034;7.376;2022-10-16T09:35:21;18.60;99.90
56374;DHT22;58212;47.034;7.376;2022-10-16T09:37:51;18.70;99.90
56374;DHT22;58212;47.034;7.376;2022-10-16T09:40:26;18.90;99.90
56374;DHT22;58212;47.034;7.376;2022-10-16T09:42:58;18.70;99.90
56374;DHT22;58212;47.034;7.376;2022-10-16T09:45:29;18.80;99.90
56374;DHT22;58212;47.034;7.376;2022-10-16T09:47:56;19.00;99.90
56374;DHT22;58212;47.034;7.376;2022-10-16T09:50:25;19.00;99.90
56374;DHT22;58212;47.034;7.376;2022-10-16T09:53:04;18.70;99.90
56374;DHT22;58212;47.034;7.376;2022-10-16T09:55:31;18.50;99.90
56374;DHT22;58212;47.034;7.376;2022-10-16T09:57:58;18.60;99.90
56374;DHT22;58212;47.034;7.376;2022-10-16T10:00:25;18.80;99.90
56374;DHT22;58212;47.034;7.376;2022-10-16T10:02:54;18.80;99.90
56374;DHT22;58212;47.034;7.376;2022-10-16T10:05:23;18.90;99.90
56374;DHT22;58212;47.034;7.376;2022-10-16T10:07:55;19.10;99.90
56374;DHT22;58212;47.034;7.376;2022-10-16T10:10:24;19.20;99.90
56374;DHT22;58212;47.034;7.376;2022-10-16T10:12:52;19.40;99.90
56374;DHT22;58212;47.034;7.376;2022-10-16T10:15:20;19.30;99.90
56374;DHT22;58212;47.034;7.376;2022-10-16T10:17:51;19.20;99.90
56374;DHT22;58212;47.034;7.376;2022-10-16T10:20:26;19.30;99.90
56374;DHT22;58212;47.034;7.376;2022-10-16T10:22:54;19.40;99.90
56374;DHT22;58212;47.034;7.376;2022-10-16T10:25:35;19.40;99.90
56374;DHT22;58212;47.034;7.376;2022-10-16T10:31:17;19.60;99.90
56374;DHT22;58212;47.034;7.376;2022-10-16T10:33:54;19.50;99.90
56374;DHT22;58212;47.034;7.376;2022-10-16T10:36:32;19.60;99.90
56374;DHT22;58212;47.034;7.376;2022-10-16T10:39:02;19.80;99.90
56374;DHT22;58212;47.034;7.376;2022-10-16T10:41:59;19.70;99.90
56374;DHT22;58212;47.034;7.376;2022-10-16T10:44:42;19.80;99.90
56374;DHT22;58212;47.034;7.376;2022-10-16T10:47:23;19.80;99.90
56374;DHT22;58212;47.034;7.376;2022-10-16T10:50:02;19.80;99.90
56374;DHT22;58212;47.034;7.376;2022-10-16T10:52:47;20.00;99.90
56374;DHT22;58212;47.034;7.376;2022-10-16T10:55:23;19.90;99.90
56374;DHT22;58212;47.034;7.376;2022-10-16T10:58:12;20.00;99.90
56374;DHT22;58212;47.034;7.376;2022-10-16T11:00:46;20.00;99.90
56374;DHT22;58212;47.034;7.376;2022-10-16T11:03:31;19.90;99.90
56374;DHT22;58212;47.034;7.376;2022-10-16T11:06:07;20.10;99.90
56374;DHT22;58212;47.034;7.376;2022-10-16T11:08:40;20.10;99.90
56374;DHT22;58212;47.034;7.376;2022-10-16T11:11:15;20.20;99.90
56374;DHT22;58212;47.034;7.376;2022-10-16T11:13:47;20.20;99.90
56374;DHT22;58212;47.034;7.376;2022-10-16T11:16:22;20.10;99.90
56374;DHT22;58212;47.034;7.376;2022-10-16T11:18:58;20.20;99.90
56374;DHT22;58212;47.034;7.376;2022-10-16T11:21:28;20.30;99.90
56374;DHT22;58212;47.034;7.376;2022-10-16T11:24:04;20.30;99.90
56374;DHT22;58212;47.034;7.376;2022-10-16T11:26:34;20.40;99.90
56374;DHT22;58212;47.034;7.376;2022-10-16T11:29:03;20.50;99.90
56374;DHT22;58212;47.034;7.376;2022-10-16T11:31:36;20.70;99.90
56374;DHT22;58212;47.034;7.376;2022-10-16T11:34:09;20.70;99.90
56374;DHT22;58212;47.034;7.376;2022-10-16T11:36:47;20.60;99.90
56374;DHT22;58212;47.034;7.376;2022-10-16T11:39:21;20.60;99.90
56374;DHT22;58212;47.034;7.376;2022-10-16T11:41:52;20.80;99.90
56374;DHT22;58212;47.034;7.376;2022-10-16T11:44:32;20.80;99.90
56374;DHT22;58212;47.034;7.376;2022-10-16T11:47:10;20.80;99.90
56374;DHT22;58212;47.034;7.376;2022-10-16T11:49:40;20.80;99.90
56374;DHT22;58212;47.034;7.376;2022-10-16T11:52:13;20.90;99.90
56374;DHT22;58212;47.034;7.376;2022-10-16T11:54:49;20.90;99.90
56374;DHT22;58212;47.034;7.376;2022-10-16T11:57:21;20.90;99.90
56374;DHT22;58212;47.034;7.376;2022-10-16T11:59:54;20.90;99.90
56374;DHT22;58212;47.034;7.376;2022-10-16T12:02:49;20.90;99.90
56374;DHT22;58212;47.034;7.376;2022-10-16T12:05:25;21.10;99.90
56374;DHT22;58212;47.034;7.376;2022-10-16T12:08:09;21.10;99.90
56374;DHT22;58212;47.034;7.376;2022-10-16T12:10:40;21.10;99.90
56374;DHT22;58212;47.034;7.376;2022-10-16T12:13:31;21.20;99.90
56374;DHT22;58212;47.034;7.376;2022-10-16T12:16:06;21.20;99.90
56374;DHT22;58212;47.034;7.376;2022-10-16T12:18:34;21.30;99.90
56374;DHT22;58212;47.034;7.376;2022-10-16T12:21:01;21.40;99.90
56374;DHT22;58212;47.034;7.376;2022-10-16T12:23:32;21.30;99.90
56374;DHT22;58212;47.034;7.376;2022-10-16T12:26:01;21.40;99.90
56374;DHT22;58212;47.034;7.376;2022-10-16T12:28:30;21.50;99.90
56374;DHT22;58212;47.034;7.376;2022-10-16T12:31:00;21.70;99.90
56374;DHT22;58212;47.034;7.376;2022-10-16T12:33:32;21.70;99.90
56374;DHT22;58212;47.034;7.376;2022-10-16T12:36:02;21.80;99.90
56374;DHT22;58212;47.034;7.376;2022-10-16T12:38:33;21.90;99.90
56374;DHT22;58212;47.034;7.376;2022-10-16T12:41:06;21.70;99.90
56374;DHT22;58212;47.034;7.376;2022-10-16T12:43:39;21.80;99.90
56374;DHT22;58212;47.034;7.376;2022-10-16T12:46:23;21.80;99.90
56374;DHT22;58212;47.034;7.376;2022-10-16T12:48:50;21.70;99.90
56374;DHT22;58212;47.034;7.376;2022-10-16T12:51:23;21.70;99.90
56374;DHT22;58212;47.034;7.376;2022-10-16T12:54:00;21.70;99.90
56374;DHT22;58212;47.034;7.376;2022-10-16T12:56:37;21.50;99.90
56374;DHT22;58212;47.034;7.376;2022-10-16T12:59:14;21.60;99.90
56374;DHT22;58212;47.034;7.376;2022-10-16T13:01:56;21.70;99.90
56374;DHT22;58212;47.034;7.376;2022-10-16T13:04:40;21.60;99.90
56374;DHT22;58212;47.034;7.376;2022-10-16T13:07:26;21.70;99.90
56374;DHT22;58212;47.034;7.376;2022-10-16T13:10:04;21.70;99.90
56374;DHT22;58212;47.034;7.376;2022-10-16T13:12:53;21.70;99.90
56374;DHT22;58212;47.034;7.376;2022-10-16T13:15:37;21.80;99.90
56374;DHT22;58212;47.034;7.376;2022-10-16T13:18:12;21.80;99.90
56374;DHT22;58212;47.034;7.376;2022-10-16T13:20:52;21.90;99.90
56374;DHT22;58212;47.034;7.376;2022-10-16T13:23:26;21.80;99.90
56374;DHT22;58212;47.034;7.376;2022-10-16T13:26:05;21.50;99.90
56374;DHT22;58212;47.034;7.376;2022-10-16T13:28:37;21.40;99.90
56374;DHT22;58212;47.034;7.376;2022-10-16T13:31:05;21.40;99.90
56374;DHT22;58212;47.034;7.376;2022-10-16T13:33:39;21.40;99.90
56374;DHT22;58212;47.034;7.376;2022-10-16T13:36:06;21.20;99.90
56374;DHT22;58212;47.034;7.376;2022-10-16T13:38:34;21.10;99.90
56374;DHT22;58212;47.034;7.376;2022-10-16T13:41:04;20.90;99.90
56374;DHT22;58212;47.034;7.376;2022-10-16T13:43:34;20.80;99.90
56374;DHT22;58212;47.034;7.376;2022-10-16T13:46:05;20.90;99.90
56374;DHT22;58212;47.034;7.376;2022-10-16T13:48:33;20.90;99.90
56374;DHT22;58212;47.034;7.376;2022-10-16T13:51:03;20.90;99.90
56374;DHT22;58212;47.034;7.376;2022-10-16T13:53:32;20.90;99.90
56374;DHT22;58212;47.034;7.376;2022-10-16T13:56:01;20.90;99.90
56374;DHT22;58212;47.034;7.376;2022-10-16T13:58:29;20.90;99.90
56374;DHT22;58212;47.034;7.376;2022-10-16T14:00:57;20.80;99.90
56374;DHT22;58212;47.034;7.376;2022-10-16T14:03:27;20.70;99.90
56374;DHT22;58212;47.034;7.376;2022-10-16T14:05:57;20.50;99.90
56374;DHT22;58212;47.034;7.376;2022-10-16T14:08:26;20.50;99.90
56374;DHT22;58212;47.034;7.376;2022-10-16T14:10:56;20.50;99.90
56374;DHT22;58212;47.034;7.376;2022-10-16T14:13:31;20.50;99.90
56374;DHT22;58212;47.034;7.376;2022-10-16T14:16:05;20.40;99.90
56374;DHT22;58212;47.034;7.376;2022-10-16T14:18:35;20.20;99.90
56374;DHT22;58212;47.034;7.376;2022-10-16T14:21:05;20.20;99.90
56374;DHT22;58212;47.034;7.376;2022-10-16T14:23:34;20.10;99.90
56374;DHT22;58212;47.034;7.376;2022-10-16T14:26:16;20.00;99.90
56374;DHT22;58212;47.034;7.376;2022-10-16T14:28:48;20.00;99.90
56374;DHT22;58212;47.034;7.376;2022-10-16T14:31:27;20.00;99.90
56374;DHT22;58212;47.034;7.376;2022-10-16T14:33:59;19.90;99.90
56374;DHT22;58212;47.034;7.376;2022-10-16T14:36:27;19.80;99.90
56374;DHT22;58212;47.034;7.376;2022-10-16T14:38:59;19.80;99.90
56374;DHT22;58212;47.034;7.376;2022-10-16T14:41:28;19.80;99.90
56374;DHT22;58212;47.034;7.376;2022-10-16T14:43:56;19.70;99.90
56374;DHT22;58212;47.034;7.376;2022-10-16T14:46:30;19.60;99.90
56374;DHT22;58212;47.034;7.376;2022-10-16T14:49:03;19.70;99.90
56374;DHT22;58212;47.034;7.376;2022-10-16T14:51:31;19.60;99.90
56374;DHT22;58212;47.034;7.376;2022-10-16T14:53:58;19.60;99.90
56374;DHT22;58212;47.034;7.376;2022-10-16T14:56:29;19.50;99.90
56374;DHT22;58212;47.034;7.376;2022-10-16T14:58:57;19.40;99.90
56374;DHT22;58212;47.034;7.376;2022-10-16T15:01:24;19.30;99.90
56374;DHT22;58212;47.034;7.376;2022-10-16T15:03:54;19.20;99.90
56374;DHT22;58212;47.034;7.376;2022-10-16T15:06:24;19.20;99.90
56374;DHT22;58212;47.034;7.376;2022-10-16T15:08:51;19.20;99.90
56374;DHT22;58212;47.034;7.376;2022-10-16T15:11:19;19.20;99.90
56374;DHT22;58212;47.034;7.376;2022-10-16T15:13:46;19.10;99.90
56374;DHT22;58212;47.034;7.376;2022-10-16T15:16:15;19.20;99.90
56374;DHT22;58212;47.034;7.376;2022-10-16T15:18:44;19.10;99.90
56374;DHT22;58212;47.034;7.376;2022-10-16T15:21:20;19.10;99.90
56374;DHT22;58212;47.034;7.376;2022-10-16T15:23:50;19.10;99.90
56374;DHT22;58212;47.034;7.376;2022-10-16T15:26:19;19.00;99.90
56374;DHT22;58212;47.034;7.376;2022-10-16T15:28:46;19.00;99.90
56374;DHT22;58212;47.034;7.376;2022-10-16T15:31:13;19.00;99.90
56374;DHT22;58212;47.034;7.376;2022-10-16T15:33:40;18.90;99.90
56374;DHT22;58212;47.034;7.376;2022-10-16T15:36:07;18.90;99.90
56374;DHT22;58212;47.034;7.376;2022-10-16T15:38:35;18.80;99.90
56374;DHT22;58212;47.034;7.376;2022-10-16T15:41:06;18.70;99.90
56374;DHT22;58212;47.034;7.376;2022-10-16T15:43:33;18.70;99.90
56374;DHT22;58212;47.034;7.376;2022-10-16T15:46:02;18.60;99.90
56374;DHT22;58212;47.034;7.376;2022-10-16T15:48:31;18.60;99.90
56374;DHT22;58212;47.034;7.376;2022-10-16T15:50:58;18.60;99.90
56374;DHT22;58212;47.034;7.376;2022-10-16T15:53:26;18.60;99.90
56374;DHT22;58212;47.034;7.376;2022-10-16T15:55:52;18.40;99.90
56374;DHT22;58212;47.034;7.376;2022-10-16T15:58:21;18.40;99.90